Time,TemperatureF,DewpointF,PressureIn,WindDirection,WindDirectionDegrees,WindSpeedMPH,WindSpeedGustMPH,Humidity,HourlyPrecipIn,Conditions,Clouds,dailyrainin,SoftwareType,DateUTC
2013-09-03 00:05:00,65.7,58.7,29.99,NE,45,0.0,0.0,78,0.00,,,0.00,WUHU216HW,2013-09-03 05:05:00,
2013-09-03 00:30:00,64.4,58.9,29.99,NE,45,0.0,0.0,82,0.00,,,0.00,WUHU216HW,2013-09-03 05:30:00,
2013-09-03 00:35:00,64.4,58.9,29.99,NE,45,0.0,0.0,82,0.00,,,0.00,WUHU216HW,2013-09-03 05:35:00,
2013-09-03 00:59:00,63.7,58.8,29.99,NE,45,0.0,0.0,84,0.00,,,0.00,WUHU216HW,2013-09-03 05:59:00,
2013-09-03 01:04:00,63.7,58.8,29.99,NE,45,0.0,0.0,84,0.00,,,0.00,WUHU216HW,2013-09-03 06:04:00,
2013-09-03 01:30:00,62.8,59.0,29.99,NE,45,0.0,0.0,87,0.00,,,0.00,WUHU216HW,2013-09-03 06:30:00,
2013-09-03 01:35:00,62.8,59.0,29.99,NE,45,0.0,0.0,87,0.00,,,0.00,WUHU216HW,2013-09-03 06:35:00,
2013-09-03 01:59:00,62.3,58.7,29.99,NE,45,0.0,0.0,88,0.00,,,0.00,WUHU216HW,2013-09-03 06:59:00,
2013-09-03 02:05:00,62.3,58.7,29.99,NE,45,0.0,0.0,88,0.00,,,0.00,WUHU216HW,2013-09-03 07:05:00,
2013-09-03 02:30:00,61.2,58.3,29.99,NE,45,0.0,0.0,90,0.00,,,0.00,WUHU216HW,2013-09-03 07:30:00,
2013-09-03 02:35:00,61.2,58.3,29.99,NE,45,0.0,0.0,90,0.00,,,0.00,WUHU216HW,2013-09-03 07:35:00,
2013-09-03 03:00:00,60.7,58.3,29.99,NE,45,0.0,0.0,92,0.00,,,0.00,WUHU216HW,2013-09-03 08:00:00,
2013-09-03 03:05:00,60.7,58.3,29.99,NE,45,0.0,0.0,92,0.00,,,0.00,WUHU216HW,2013-09-03 08:05:00,
2013-09-03 03:30:00,60.1,58.2,29.99,NE,45,0.0,0.0,93,0.00,,,0.00,WUHU216HW,2013-09-03 08:30:00,
2013-09-03 03:35:00,60.1,58.2,29.99,NE,45,0.0,0.0,93,0.00,,,0.00,WUHU216HW,2013-09-03 08:35:00,
2013-09-03 04:00:00,59.6,57.9,29.99,NE,45,0.0,0.0,94,0.00,,,0.00,WUHU216HW,2013-09-03 09:00:00,
2013-09-03 04:05:00,59.6,57.9,29.99,NE,45,0.0,0.0,94,0.00,,,0.00,WUHU216HW,2013-09-03 09:05:00,
2013-09-03 04:30:00,59.2,57.8,29.99,NE,45,0.0,0.0,95,0.00,,,0.00,WUHU216HW,2013-09-03 09:30:00,
2013-09-03 04:35:00,59.2,57.8,29.99,NE,45,0.0,0.0,95,0.00,,,0.00,WUHU216HW,2013-09-03 09:35:00,
2013-09-03 05:00:00,58.7,57.2,29.99,NE,45,0.0,0.0,95,0.00,,,0.00,WUHU216HW,2013-09-03 10:00:00,
2013-09-03 05:05:00,58.7,57.2,29.99,NE,45,0.0,0.0,95,0.00,,,0.00,WUHU216HW,2013-09-03 10:05:00,
2013-09-03 05:30:00,58.1,57.0,30.01,NE,45,0.0,0.0,96,0.00,,,0.00,WUHU216HW,2013-09-03 10:30:00,
2013-09-03 05:35:00,58.1,57.0,30.01,NE,45,0.0,0.0,96,0.00,,,0.00,WUHU216HW,2013-09-03 10:35:00,
2013-09-03 06:00:00,57.8,57.3,30.01,NE,45,0.0,0.0,98,0.00,,,0.00,WUHU216HW,2013-09-03 11:00:00,
2013-09-03 06:05:00,57.8,57.3,30.01,NE,45,0.0,0.0,98,0.00,,,0.00,WUHU216HW,2013-09-03 11:05:00,
2013-09-03 06:30:00,57.2,56.7,30.01,NE,45,0.0,0.0,98,0.00,,,0.00,WUHU216HW,2013-09-03 11:30:00,
2013-09-03 06:35:00,57.2,56.7,30.01,NE,45,0.0,0.0,98,0.00,,,0.00,WUHU216HW,2013-09-03 11:35:00,
2013-09-03 07:00:00,56.9,56.6,30.02,NE,45,0.0,0.0,99,0.00,,,0.00,WUHU216HW,2013-09-03 12:00:00,
2013-09-03 07:05:00,56.9,56.6,30.02,NE,45,0.0,0.0,99,0.00,,,0.00,WUHU216HW,2013-09-03 12:05:00,
2013-09-03 07:30:00,57.1,56.8,30.03,NE,45,0.0,0.0,99,0.00,,,0.00,WUHU216HW,2013-09-03 12:30:00,
2013-09-03 07:35:00,57.1,56.8,30.03,NE,45,0.0,0.0,99,0.00,,,0.00,WUHU216HW,2013-09-03 12:35:00,
2013-09-03 08:00:00,58.3,58.1,30.04,NE,45,0.0,0.0,99,0.00,,,0.00,WUHU216HW,2013-09-03 13:00:00,
2013-09-03 08:05:00,58.3,58.1,30.04,NE,45,0.0,0.0,99,0.00,,,0.00,WUHU216HW,2013-09-03 13:05:00,
2013-09-03 08:30:00,61.9,60.8,30.04,South,180,0.2,0.2,96,0.00,,,0.00,WUHU216HW,2013-09-03 13:30:00,
2013-09-03 08:35:00,61.9,60.8,30.04,South,180,0.2,0.2,96,0.00,,,0.00,WUHU216HW,2013-09-03 13:35:00,
2013-09-03 09:00:00,65.5,61.8,30.05,ESE,113,0.0,0.0,88,0.00,,,0.00,WUHU216HW,2013-09-03 14:00:00,
2013-09-03 09:05:00,65.5,61.8,30.05,ESE,113,0.0,0.0,88,0.00,,,0.00,WUHU216HW,2013-09-03 14:05:00,
2013-09-03 09:30:00,69.1,61.9,30.05,South,180,1.8,1.8,78,0.00,,,0.00,WUHU216HW,2013-09-03 14:30:00,
2013-09-03 09:35:00,69.1,61.9,30.05,South,180,1.8,1.8,78,0.00,,,0.00,WUHU216HW,2013-09-03 14:35:00,
2013-09-03 10:00:00,72.2,62.6,30.05,SE,135,0.2,0.2,72,0.00,,,0.00,WUHU216HW,2013-09-03 15:00:00,
2013-09-03 10:05:00,72.2,62.6,30.05,SE,135,0.2,0.2,72,0.00,,,0.00,WUHU216HW,2013-09-03 15:05:00,
2013-09-03 10:30:00,74.5,62.4,30.07,South,180,2.5,2.5,66,0.00,,,0.00,WUHU216HW,2013-09-03 15:30:00,
2013-09-03 10:35:00,74.5,62.4,30.07,South,180,2.5,2.5,66,0.00,,,0.00,WUHU216HW,2013-09-03 15:35:00,
2013-09-03 11:00:00,76.5,61.1,30.06,South,180,3.1,3.1,59,0.00,,,0.00,WUHU216HW,2013-09-03 16:00:00,
2013-09-03 11:05:00,76.5,61.1,30.06,South,180,3.1,3.1,59,0.00,,,0.00,WUHU216HW,2013-09-03 16:05:00,
2013-09-03 11:30:00,78.1,61.7,30.06,South,180,3.6,3.6,57,0.00,,,0.00,WUHU216HW,2013-09-03 16:30:00,
2013-09-03 11:35:00,78.1,61.7,30.06,South,180,3.6,3.6,57,0.00,,,0.00,WUHU216HW,2013-09-03 16:35:00,
2013-09-03 12:00:00,78.8,60.2,30.06,South,180,0.7,0.7,53,0.00,,,0.00,WUHU216HW,2013-09-03 17:00:00,
2013-09-03 12:05:00,78.8,60.2,30.06,South,180,0.7,0.7,53,0.00,,,0.00,WUHU216HW,2013-09-03 17:05:00,
2013-09-03 12:30:00,79.9,60.2,30.05,South,180,1.3,1.3,51,0.00,,,0.00,WUHU216HW,2013-09-03 17:30:00,
2013-09-03 12:35:00,79.9,60.2,30.05,South,180,1.3,1.3,51,0.00,,,0.00,WUHU216HW,2013-09-03 17:35:00,
2013-09-03 13:00:00,81.7,59.4,30.04,NNE,23,0.0,0.0,47,0.00,,,0.00,WUHU216HW,2013-09-03 18:00:00,
2013-09-03 13:05:00,81.7,59.4,30.04,NNE,23,0.0,0.0,47,0.00,,,0.00,WUHU216HW,2013-09-03 18:05:00,
2013-09-03 13:30:00,84.6,59.1,30.03,SSE,158,0.2,0.2,42,0.00,,,0.00,WUHU216HW,2013-09-03 18:30:00,
2013-09-03 13:35:00,84.6,59.1,30.03,SSE,158,0.2,0.2,42,0.00,,,0.00,WUHU216HW,2013-09-03 18:35:00,
2013-09-03 14:00:00,86.0,59.7,30.02,ENE,68,0.9,0.9,41,0.00,,,0.00,WUHU216HW,2013-09-03 19:00:00,
2013-09-03 14:05:00,86.0,59.7,30.02,ENE,68,0.9,0.9,41,0.00,,,0.00,WUHU216HW,2013-09-03 19:05:00,
2013-09-03 14:30:00,90.0,61.7,30.01,ENE,68,1.8,1.8,39,0.00,,,0.00,WUHU216HW,2013-09-03 19:30:00,
2013-09-03 14:35:00,90.0,61.7,30.01,ENE,68,1.8,1.8,39,0.00,,,0.00,WUHU216HW,2013-09-03 19:35:00,
2013-09-03 15:00:00,91.8,59.3,30.00,SSW,203,1.1,1.1,34,0.00,,,0.00,WUHU216HW,2013-09-03 20:00:00,
2013-09-03 15:05:00,91.8,59.3,30.00,SSW,203,1.1,1.1,34,0.00,,,0.00,WUHU216HW,2013-09-03 20:05:00,
2013-09-03 15:30:00,92.9,60.2,29.99,South,180,3.4,3.4,34,0.00,,,0.00,WUHU216HW,2013-09-03 20:30:00,
2013-09-03 15:35:00,92.9,60.2,29.99,South,180,3.4,3.4,34,0.00,,,0.00,WUHU216HW,2013-09-03 20:35:00,
2013-09-03 16:00:00,88.4,56.3,29.98,NE,45,0.0,0.0,34,0.00,,,0.00,WUHU216HW,2013-09-03 21:00:00,
2013-09-03 16:05:00,88.4,56.3,29.98,NE,45,0.0,0.0,34,0.00,,,0.00,WUHU216HW,2013-09-03 21:05:00,
2013-09-03 16:30:00,87.1,56.8,29.98,South,180,0.0,0.0,36,0.00,,,0.00,WUHU216HW,2013-09-03 21:30:00,
2013-09-03 16:35:00,87.1,56.8,29.98,South,180,0.0,0.0,36,0.00,,,0.00,WUHU216HW,2013-09-03 21:35:00,
2013-09-03 17:00:00,85.0,56.5,29.98,South,180,1.1,1.1,38,0.00,,,0.00,WUHU216HW,2013-09-03 22:00:00,
2013-09-03 17:05:00,85.0,56.5,29.98,South,180,1.1,1.1,38,0.00,,,0.00,WUHU216HW,2013-09-03 22:05:00,
2013-09-03 17:30:00,85.0,54.1,29.98,WSW,248,0.0,0.0,35,0.00,,,0.00,WUHU216HW,2013-09-03 22:30:00,
2013-09-03 17:35:00,85.0,54.1,29.98,WSW,248,0.0,0.0,35,0.00,,,0.00,WUHU216HW,2013-09-03 22:35:00,
2013-09-03 18:00:00,84.2,55.1,29.98,WSW,248,0.0,0.0,37,0.00,,,0.00,WUHU216HW,2013-09-03 23:00:00,
2013-09-03 18:05:00,84.2,55.1,29.98,WSW,248,0.0,0.0,37,0.00,,,0.00,WUHU216HW,2013-09-03 23:05:00,
2013-09-03 18:30:00,83.0,54.7,29.98,SSW,203,0.0,0.0,38,0.00,,,0.00,WUHU216HW,2013-09-03 23:30:00,
2013-09-03 18:35:00,83.0,54.7,29.98,SSW,203,0.0,0.0,38,0.00,,,0.00,WUHU216HW,2013-09-03 23:35:00,
2013-09-03 18:59:00,82.1,56.1,29.98,SSW,203,0.0,0.0,41,0.00,,,0.00,WUHU216HW,2013-09-03 23:59:00,
2013-09-03 19:04:00,82.1,56.1,29.98,SSW,203,0.0,0.0,41,0.00,,,0.00,WUHU216HW,2013-09-04 00:04:00,
2013-09-03 19:29:00,79.6,56.9,29.98,SSW,203,0.0,0.0,46,0.00,,,0.00,WUHU216HW,2013-09-04 00:29:00,
2013-09-03 19:35:00,79.6,56.9,29.98,SSW,203,0.0,0.0,46,0.00,,,0.00,WUHU216HW,2013-09-04 00:35:00,
2013-09-03 19:59:00,77.0,57.1,29.98,SSW,203,0.2,0.2,50,0.00,,,0.00,WUHU216HW,2013-09-04 00:59:00,
2013-09-03 20:04:00,77.0,57.1,29.98,SSW,203,0.2,0.2,50,0.00,,,0.00,WUHU216HW,2013-09-04 01:04:00,
2013-09-03 20:29:00,75.4,56.6,29.98,ESE,113,0.0,0.0,52,0.00,,,0.00,WUHU216HW,2013-09-04 01:29:00,
2013-09-03 20:34:00,75.4,56.6,29.98,ESE,113,0.0,0.0,52,0.00,,,0.00,WUHU216HW,2013-09-04 01:34:00,
2013-09-03 20:59:00,73.8,57.1,29.99,ESE,113,0.0,0.0,56,0.00,,,0.00,WUHU216HW,2013-09-04 01:59:00,
2013-09-03 21:04:00,73.8,57.1,29.99,ESE,113,0.0,0.0,56,0.00,,,0.00,WUHU216HW,2013-09-04 02:04:00,
2013-09-03 21:29:00,72.0,56.9,30.00,ESE,113,0.0,0.0,59,0.00,,,0.00,WUHU216HW,2013-09-04 02:29:00,
2013-09-03 21:35:00,72.0,56.9,30.00,ESE,113,0.0,0.0,59,0.00,,,0.00,WUHU216HW,2013-09-04 02:35:00,
2013-09-03 21:59:00,70.4,57.2,30.01,ESE,113,0.0,0.0,63,0.00,,,0.00,WUHU216HW,2013-09-04 02:59:00,
2013-09-03 22:04:00,70.4,57.2,30.01,ESE,113,0.0,0.0,63,0.00,,,0.00,WUHU216HW,2013-09-04 03:04:00,
2013-09-03 22:29:00,69.3,57.9,30.00,ESE,113,0.0,0.0,67,0.00,,,0.00,WUHU216HW,2013-09-04 03:29:00,
2013-09-03 22:34:00,69.3,57.9,30.00,ESE,113,0.0,0.0,67,0.00,,,0.00,WUHU216HW,2013-09-04 03:34:00,
2013-09-03 22:59:00,68.0,57.5,30.01,ESE,113,0.0,0.0,69,0.00,,,0.00,WUHU216HW,2013-09-04 03:59:00,
2013-09-03 23:01:00,68.0,57.5,30.01,ESE,113,0.0,0.0,69,0.00,,,0.00,WUHU216HW,2013-09-04 04:01:00,
2013-09-03 23:02:00,68.0,57.5,30.01,ESE,113,0.0,0.0,69,0.00,,,0.00,WUHU216HW,2013-09-04 04:02:00,
2013-09-03 23:07:00,68.0,57.5,30.01,ESE,113,0.0,0.0,69,0.00,,,0.00,WUHU216HW,2013-09-04 04:07:00,
2013-09-03 23:30:00,67.3,57.6,30.02,ESE,113,0.0,0.0,71,0.00,,,0.00,WUHU216HW,2013-09-04 04:30:00,
2013-09-03 23:35:00,67.3,57.6,30.02,ESE,113,0.0,0.0,71,0.00,,,0.00,WUHU216HW,2013-09-04 04:35:00,
2013-09-03 23:59:00,66.2,57.7,30.02,ESE,113,0.0,0.0,74,0.00,,,0.00,WUHU216HW,2013-09-04 04:59:00,